createdAt,value
2023-01-18T00:01:16.088Z,-1.70
2023-01-18T00:04:03.953Z,-1.70
2023-01-18T00:06:51.414Z,-1.80
2023-01-18T00:09:39.071Z,-1.50
2023-01-18T00:12:26.509Z,-1.70
2023-01-18T00:15:14.074Z,-1.90
2023-01-18T00:18:06.079Z,-1.70
2023-01-18T00:20:53.931Z,-1.70
2023-01-18T00:23:41.413Z,-1.70
2023-01-18T00:26:29.177Z,-1.70
2023-01-18T00:29:16.801Z,-1.80
2023-01-18T00:32:08.366Z,-1.70
2023-01-18T00:35:01.116Z,-3.70
2023-01-18T00:37:49.936Z,-1.80
2023-01-18T00:40:37.852Z,-0.90
2023-01-18T00:43:39.103Z,-1.80
2023-01-18T00:46:31.045Z,-1.90
2023-01-18T00:49:19.197Z,-1.90
2023-01-18T00:52:08.179Z,-2.00
2023-01-18T00:54:56.644Z,-2.00
2023-01-18T00:57:44.644Z,-2.30
2023-01-18T01:00:32.717Z,-1.70
2023-01-18T01:03:20.047Z,-0.90
2023-01-18T01:06:24.986Z,-1.60
2023-01-18T01:09:14.442Z,-2.00
2023-01-18T01:12:19.302Z,-2.10
2023-01-18T01:15:25.079Z,-2.30
2023-01-18T01:18:31.381Z,-2.00
2023-01-18T01:21:36.177Z,-2.30
2023-01-18T01:24:42.741Z,-2.30
2023-01-18T01:27:31.010Z,-2.30
2023-01-18T01:30:18.868Z,-2.20
2023-01-18T01:33:06.443Z,-2.30
2023-01-18T01:35:56.144Z,-2.50
2023-01-18T01:38:44.060Z,-2.10
2023-01-18T01:41:33.692Z,-2.40
2023-01-18T01:44:43.275Z,-4.80
2023-01-18T01:47:37.119Z,-2.40
2023-01-18T01:50:27.843Z,-2.40
2023-01-18T01:53:15.792Z,-2.40
2023-01-18T01:56:05.033Z,-2.30
2023-01-18T01:58:57.861Z,-2.40
2023-01-18T02:01:47.678Z,-2.40
2023-01-18T02:04:36.303Z,-2.40
2023-01-18T02:07:26.378Z,-2.40
2023-01-18T02:10:13.982Z,-2.40
2023-01-18T02:13:02.113Z,-2.60
2023-01-18T02:15:53.526Z,-2.40
2023-01-18T02:18:46.682Z,-2.20
2023-01-18T02:21:37.832Z,-2.40
2023-01-18T02:24:50.546Z,-2.30
2023-01-18T02:27:43.813Z,-2.10
2023-01-18T02:30:35.623Z,-2.20
2023-01-18T02:33:27.309Z,0.20
2023-01-18T02:36:20.364Z,-2.30
2023-01-18T02:39:11.532Z,-2.10
2023-01-18T02:42:20.364Z,-2.40
2023-01-18T02:45:28.121Z,-2.50
2023-01-18T02:48:17.253Z,-2.50
2023-01-18T02:51:05.337Z,-2.50
2023-01-18T02:53:53.213Z,-2.60
2023-01-18T02:56:42.595Z,-0.70
2023-01-18T02:59:33.887Z,-2.50
2023-01-18T03:02:24.710Z,-2.50
2023-01-18T03:05:14.380Z,-2.50
2023-01-18T03:08:08.157Z,-2.50
2023-01-18T03:10:59.054Z,-1.60
2023-01-18T03:13:57.005Z,-2.50
2023-01-18T03:16:58.099Z,-2.60
2023-01-18T03:20:03.829Z,-2.60
2023-01-18T03:23:11.736Z,-2.10
2023-01-18T03:26:00.608Z,-2.60
2023-01-18T03:29:07.395Z,-2.60
2023-01-18T03:32:14.321Z,-2.70
2023-01-18T03:35:08.130Z,-2.70
2023-01-18T03:37:58.916Z,-2.60
2023-01-18T03:40:47.284Z,-2.40
2023-01-18T03:43:37.888Z,-2.80
2023-01-18T03:46:26.988Z,-2.60
2023-01-18T03:49:14.326Z,-2.70
2023-01-18T03:52:08.065Z,-2.60
2023-01-18T03:55:01.092Z,-2.70
2023-01-18T03:57:51.592Z,-2.60
2023-01-18T04:00:40.977Z,-2.50
2023-01-18T04:03:30.561Z,-2.50
2023-01-18T04:06:17.932Z,-2.60
2023-01-18T04:09:11.943Z,-2.30
2023-01-18T04:12:01.024Z,-2.40
2023-01-18T04:14:48.256Z,-2.50
2023-01-18T04:17:37.876Z,-2.70
2023-01-18T04:20:25.652Z,-4.80
2023-01-18T04:23:13.701Z,-2.60
2023-01-18T04:26:01.789Z,-2.60
2023-01-18T04:28:52.154Z,-2.40
2023-01-18T04:31:39.562Z,-2.80
2023-01-18T04:34:29.490Z,-2.70
2023-01-18T04:37:17.789Z,-2.70
2023-01-18T04:40:05.441Z,-2.70
2023-01-18T04:42:54.213Z,-2.70
2023-01-18T04:45:43.196Z,-2.70
2023-01-18T04:48:30.919Z,-2.60
2023-01-18T04:51:19.240Z,-2.60
2023-01-18T04:54:07.772Z,-2.60
2023-01-18T04:56:56.771Z,-2.70
2023-01-18T04:59:46.126Z,-2.70
2023-01-18T05:02:35.327Z,-2.70
2023-01-18T05:05:24.016Z,-2.70
2023-01-18T05:08:11.739Z,-2.80
2023-01-18T05:11:01.619Z,-2.70
2023-01-18T05:13:49.492Z,-2.80
2023-01-18T05:16:37.344Z,-3.00
2023-01-18T05:19:30.794Z,-2.70
2023-01-18T05:22:19.043Z,-2.80
2023-01-18T05:25:06.691Z,-2.70
2023-01-18T05:27:54.704Z,-2.70
2023-01-18T05:30:43.943Z,-2.70
2023-01-18T05:33:31.323Z,-2.70
2023-01-18T05:36:20.851Z,-2.70
2023-01-18T05:39:09.360Z,-2.70
2023-01-18T05:41:58.171Z,-2.50
2023-01-18T05:44:47.806Z,-2.60
2023-01-18T05:47:35.603Z,-2.60
2023-01-18T05:50:23.859Z,-2.60
2023-01-18T05:53:13.908Z,-2.60
2023-01-18T05:56:03.217Z,-2.50
2023-01-18T05:58:50.585Z,-2.60
2023-01-18T06:01:38.910Z,-2.00
2023-01-18T06:04:26.708Z,-4.70
2023-01-18T06:07:15.242Z,-2.50
2023-01-18T06:10:04.212Z,-2.70
2023-01-18T06:12:52.631Z,-2.60
2023-01-18T06:15:40.922Z,-2.50
2023-01-18T06:18:30.099Z,-2.50
2023-01-18T06:21:18.146Z,-2.50
2023-01-18T06:24:05.671Z,-2.50
2023-01-18T06:26:54.562Z,-2.60
2023-01-18T06:29:41.896Z,-2.50
2023-01-18T06:32:29.975Z,-2.60
2023-01-18T06:35:17.889Z,-2.60
2023-01-18T06:38:06.081Z,-2.50
2023-01-18T06:40:53.579Z,-2.40
2023-01-18T06:43:43.461Z,-2.50
2023-01-18T06:46:34.321Z,-2.50
2023-01-18T06:49:22.542Z,-2.50
2023-01-18T06:52:10.801Z,-2.60
2023-01-18T06:54:58.887Z,-2.50
2023-01-18T06:57:50.106Z,-2.60
2023-01-18T07:00:39.952Z,-2.50
2023-01-18T07:03:28.304Z,-2.60
2023-01-18T07:06:16.150Z,-2.60
2023-01-18T07:09:05.723Z,-2.60
2023-01-18T07:11:53.714Z,-2.50
2023-01-18T07:14:41.028Z,-2.40
2023-01-18T07:17:31.059Z,-2.40
2023-01-18T07:20:20.077Z,-2.30
2023-01-18T07:23:08.377Z,-2.20
2023-01-18T07:25:59.808Z,-2.20
2023-01-18T07:28:47.530Z,-2.30
2023-01-18T07:31:35.174Z,-2.50
2023-01-18T07:34:24.046Z,-2.60
2023-01-18T07:37:12.383Z,-2.60
2023-01-18T07:39:59.947Z,-2.70
2023-01-18T07:42:47.449Z,-2.70
2023-01-18T07:45:35.049Z,-2.70
2023-01-18T07:48:23.769Z,-2.70
2023-01-18T07:51:12.696Z,-2.80
2023-01-18T07:54:00.258Z,-2.80
2023-01-18T07:56:47.828Z,-2.80
2023-01-18T07:59:35.780Z,-2.80
2023-01-18T08:02:22.999Z,-2.80
2023-01-18T08:05:11.714Z,-2.70
2023-01-18T08:08:00.947Z,-2.70
2023-01-18T08:10:49.244Z,-2.70
2023-01-18T08:13:36.672Z,-2.80
2023-01-18T08:16:27.319Z,-2.80
2023-01-18T08:19:14.867Z,-2.70
2023-01-18T08:22:02.687Z,-2.70
2023-01-18T08:24:51.610Z,-2.70
2023-01-18T08:27:40.257Z,-2.70
2023-01-18T08:30:28.421Z,-2.60
2023-01-18T08:33:16.398Z,-2.50
2023-01-18T08:36:04.618Z,-2.50
2023-01-18T08:38:55.456Z,-2.50
2023-01-18T08:41:46.738Z,-2.40
2023-01-18T08:44:34.835Z,-2.40
2023-01-18T08:47:22.322Z,-2.30
2023-01-18T08:50:12.778Z,-2.30
2023-01-18T08:53:00.914Z,-2.30
2023-01-18T08:55:51.374Z,-2.20
2023-01-18T08:58:40.257Z,-2.20
2023-01-18T09:01:27.669Z,-2.10
2023-01-18T09:04:16.005Z,-2.10
2023-01-18T09:07:04.421Z,-2.00
2023-01-18T09:09:52.044Z,-2.10
2023-01-18T09:12:39.852Z,-2.00
2023-01-18T09:15:29.440Z,-1.80
2023-01-18T09:18:16.869Z,-1.70
2023-01-18T09:21:07.197Z,-1.60
2023-01-18T09:23:55.256Z,-1.50
2023-01-18T09:26:45.315Z,-1.40
2023-01-18T09:29:33.154Z,-1.20
2023-01-18T09:32:22.514Z,-1.20
2023-01-18T09:35:11.411Z,-1.00
2023-01-18T09:37:59.329Z,-0.80
2023-01-18T09:40:47.573Z,-0.70
2023-01-18T09:43:39.284Z,-0.60
2023-01-18T09:46:28.384Z,-0.60
2023-01-18T09:49:19.944Z,-0.50
2023-01-18T09:52:19.571Z,-0.50
2023-01-18T09:55:14.118Z,-0.50
2023-01-18T09:58:12.682Z,-2.40
2023-01-18T10:01:02.907Z,-0.40
2023-01-18T10:03:53.639Z,-0.10
2023-01-18T10:06:48.095Z,-0.30
2023-01-18T10:09:39.998Z,2.80
2023-01-18T10:12:35.279Z,-0.50
2023-01-18T10:15:27.017Z,-0.50
2023-01-18T10:18:17.067Z,-0.50
2023-01-18T10:21:06.776Z,-0.50
2023-01-18T10:24:04.113Z,-0.40
2023-01-18T10:26:53.904Z,-0.40
2023-01-18T10:29:47.163Z,-0.30
2023-01-18T10:32:38.340Z,-0.30
2023-01-18T10:35:29.272Z,-0.20
2023-01-18T10:38:18.932Z,0.00
2023-01-18T10:41:14.259Z,0.10
2023-01-18T10:44:04.840Z,0.80
2023-01-18T10:46:57.004Z,0.40
2023-01-18T10:49:46.521Z,0.70
2023-01-18T10:52:34.751Z,0.40
2023-01-18T10:55:26.246Z,0.50
2023-01-18T10:58:15.911Z,0.70
2023-01-18T11:01:04.616Z,0.80
2023-01-18T11:03:54.544Z,0.80
2023-01-18T11:06:46.434Z,0.90
2023-01-18T11:09:42.268Z,1.10
2023-01-18T11:12:38.474Z,1.20
2023-01-18T11:15:32.637Z,1.20
2023-01-18T11:18:21.501Z,1.20
2023-01-18T11:21:13.029Z,1.40
2023-01-18T11:24:07.237Z,1.40
2023-01-18T11:26:57.055Z,1.90
2023-01-18T11:29:46.265Z,1.60
2023-01-18T11:32:38.760Z,1.70
2023-01-18T11:35:30.398Z,1.80
2023-01-18T11:38:21.604Z,1.70
2023-01-18T11:41:15.009Z,1.90
2023-01-18T11:44:06.095Z,1.90
2023-01-18T11:46:54.988Z,2.20
2023-01-18T11:49:49.437Z,2.30
2023-01-18T11:52:42.724Z,2.50
2023-01-18T11:55:33.828Z,2.60
2023-01-18T11:58:24.712Z,2.60
2023-01-18T12:01:23.935Z,2.70
2023-01-18T12:04:13.307Z,2.70
2023-01-18T12:07:07.871Z,2.60
2023-01-18T12:09:57.329Z,2.60
2023-01-18T12:12:53.630Z,2.60
2023-01-18T12:15:49.873Z,2.60
2023-01-18T12:18:59.136Z,2.70
2023-01-18T12:21:51.765Z,2.70
2023-01-18T12:24:46.276Z,2.80
2023-01-18T12:27:41.020Z,2.80
2023-01-18T12:30:55.254Z,2.90
2023-01-18T12:33:48.775Z,3.00
2023-01-18T12:36:42.954Z,3.20
2023-01-18T12:39:42.567Z,3.40
2023-01-18T12:42:37.589Z,3.50
2023-01-18T12:45:30.070Z,3.60
2023-01-18T12:48:20.568Z,3.70
2023-01-18T12:51:12.756Z,3.60
2023-01-18T12:54:04.027Z,3.40
2023-01-18T12:56:51.789Z,3.00
2023-01-18T12:59:43.386Z,3.70
2023-01-18T13:02:34.519Z,3.70
2023-01-18T13:05:24.167Z,3.60
2023-01-18T13:08:15.232Z,3.40
2023-01-18T13:11:08.179Z,2.60
2023-01-18T13:14:01.512Z,3.40
2023-01-18T13:16:56.045Z,3.50
2023-01-18T13:19:46.015Z,3.40
2023-01-18T13:22:36.610Z,3.50
2023-01-18T13:25:36.673Z,3.50
2023-01-18T13:28:25.696Z,6.20
2023-01-18T13:31:13.975Z,3.50
2023-01-18T13:34:03.747Z,3.60
2023-01-18T13:36:54.435Z,3.60
2023-01-18T13:39:46.733Z,3.60
2023-01-18T13:42:37.048Z,3.80
2023-01-18T13:45:26.286Z,3.70
2023-01-18T13:48:31.458Z,3.70
2023-01-18T13:51:38.639Z,3.70
2023-01-18T13:54:46.842Z,3.80
2023-01-18T13:57:37.049Z,3.80
2023-01-18T14:00:25.843Z,3.80
2023-01-18T14:03:19.475Z,3.80
2023-01-18T14:06:09.117Z,3.90
2023-01-18T14:09:00.832Z,4.20
2023-01-18T14:11:52.405Z,4.20
2023-01-18T14:14:57.369Z,4.50
2023-01-18T14:17:58.239Z,4.70
2023-01-18T14:20:59.280Z,5.10
2023-01-18T14:23:58.127Z,5.20
2023-01-18T14:26:46.510Z,5.50
2023-01-18T14:29:36.561Z,5.70
2023-01-18T14:32:32.139Z,5.70
2023-01-18T14:35:27.985Z,5.80
2023-01-18T14:38:19.051Z,6.30
2023-01-18T14:41:08.489Z,6.20
2023-01-18T14:44:18.869Z,6.30
2023-01-18T14:47:23.486Z,6.00
2023-01-18T14:50:16.291Z,5.70
2023-01-18T14:53:04.649Z,5.20
2023-01-18T14:56:08.999Z,4.90
2023-01-18T14:58:57.766Z,4.40
2023-01-18T15:01:52.618Z,4.00
2023-01-18T15:04:44.753Z,3.80
2023-01-18T15:07:35.153Z,3.70
2023-01-18T15:10:23.996Z,3.40
2023-01-18T15:13:15.825Z,3.40
2023-01-18T15:16:04.332Z,3.20
2023-01-18T15:18:53.143Z,3.30
2023-01-18T15:21:40.726Z,3.30
2023-01-18T15:24:30.402Z,3.10
2023-01-18T15:27:18.500Z,3.00
2023-01-18T15:30:13.032Z,2.80
2023-01-18T15:33:02.481Z,2.80
2023-01-18T15:35:53.698Z,2.80
2023-01-18T15:38:41.620Z,2.90
2023-01-18T15:41:34.395Z,2.50
2023-01-18T15:44:31.897Z,2.40
2023-01-18T15:47:24.281Z,2.30
2023-01-18T15:50:17.561Z,2.20
2023-01-18T15:53:12.052Z,2.10
2023-01-18T15:56:03.755Z,2.10
2023-01-18T15:58:55.984Z,2.00
2023-01-18T16:01:48.969Z,2.00
2023-01-18T16:04:36.892Z,1.90
2023-01-18T16:07:25.271Z,1.70
2023-01-18T16:10:31.106Z,1.60
2023-01-18T16:13:32.294Z,3.40
2023-01-18T16:16:23.326Z,1.80
2023-01-18T16:19:18.256Z,1.80
2023-01-18T16:22:08.286Z,2.00
2023-01-18T16:25:01.502Z,2.00
2023-01-18T16:27:50.574Z,2.10
2023-01-18T16:30:39.892Z,2.00
2023-01-18T16:33:35.742Z,2.40
2023-01-18T16:36:27.620Z,2.10
2023-01-18T16:39:20.333Z,2.30
2023-01-18T16:42:11.913Z,4.90
2023-01-18T16:45:00.299Z,2.00
2023-01-18T16:47:50.270Z,1.90
2023-01-18T16:50:44.776Z,2.00
2023-01-18T16:53:34.960Z,1.80
2023-01-18T16:56:23.491Z,1.70
2023-01-18T16:59:16.977Z,4.10
2023-01-18T17:02:05.216Z,3.20
2023-01-18T17:04:59.207Z,2.00
2023-01-18T17:07:51.011Z,2.00
2023-01-18T17:10:40.794Z,2.00
2023-01-18T17:13:28.885Z,2.40
2023-01-18T17:16:17.997Z,2.10
2023-01-18T17:19:06.039Z,2.10
2023-01-18T17:22:01.337Z,1.80
2023-01-18T17:24:54.580Z,3.20
2023-01-18T17:27:43.189Z,1.80
2023-01-18T17:30:36.509Z,1.70
2023-01-18T17:33:26.331Z,2.90
2023-01-18T17:36:14.755Z,1.80
2023-01-18T17:39:07.865Z,4.10
2023-01-18T17:41:57.450Z,2.40
2023-01-18T17:44:49.610Z,2.10
2023-01-18T17:47:43.764Z,1.70
2023-01-18T17:50:32.144Z,4.30
2023-01-18T17:53:21.466Z,1.80
2023-01-18T17:56:17.626Z,1.90
2023-01-18T17:59:12.760Z,1.90
2023-01-18T18:02:03.653Z,2.20
2023-01-18T18:04:52.284Z,1.70
2023-01-18T18:07:41.288Z,3.20
2023-01-18T18:10:29.932Z,2.00
2023-01-18T18:13:19.042Z,2.00
2023-01-18T18:16:19.380Z,1.70
2023-01-18T18:19:13.409Z,1.70
2023-01-18T18:22:04.265Z,1.90
2023-01-18T18:24:52.173Z,1.90
2023-01-18T18:27:49.045Z,1.80
2023-01-18T18:30:41.372Z,1.90
2023-01-18T18:33:32.880Z,1.90
2023-01-18T18:36:27.999Z,1.80
2023-01-18T18:39:20.759Z,2.50
2023-01-18T18:42:10.651Z,1.60
2023-01-18T18:45:03.691Z,0.30
2023-01-18T18:47:59.887Z,1.90
2023-01-18T18:54:20.812Z,1.80
2023-01-18T18:57:10.827Z,2.90
2023-01-18T19:00:02.574Z,1.70
2023-01-18T19:02:50.522Z,1.30
2023-01-18T19:05:39.805Z,1.70
2023-01-18T19:08:33.540Z,0.40
2023-01-18T19:11:27.697Z,1.60
2023-01-18T19:14:27.577Z,1.40
2023-01-18T19:17:29.858Z,3.60
2023-01-18T19:20:20.057Z,0.20
2023-01-18T19:23:21.262Z,1.80
2023-01-18T19:26:21.191Z,2.10
2023-01-18T19:29:13.314Z,2.10
2023-01-18T19:32:01.919Z,1.90
2023-01-18T19:34:51.195Z,2.00
2023-01-18T19:37:51.098Z,-0.70
2023-01-18T19:40:39.742Z,2.20
2023-01-18T19:43:28.809Z,2.10
2023-01-18T19:46:25.684Z,2.00
2023-01-18T19:49:21.594Z,2.00
2023-01-18T19:52:09.550Z,2.50
2023-01-18T19:55:02.405Z,2.20
2023-01-18T19:58:01.529Z,2.20
2023-01-18T20:00:59.649Z,2.70
2023-01-18T20:03:50.477Z,2.10
2023-01-18T20:06:43.760Z,2.40
2023-01-18T20:09:42.752Z,4.80
2023-01-18T20:12:33.011Z,2.20
2023-01-18T20:15:22.454Z,3.90
2023-01-18T20:18:20.760Z,2.20
2023-01-18T20:21:14.274Z,2.00
2023-01-18T20:24:04.308Z,1.80
2023-01-18T20:27:14.520Z,1.80
2023-01-18T20:30:08.607Z,1.60
2023-01-18T20:32:58.620Z,1.60
2023-01-18T20:35:57.240Z,1.60
2023-01-18T20:38:46.781Z,1.40
2023-01-18T20:41:34.772Z,1.40
2023-01-18T20:44:25.045Z,1.20
2023-01-18T20:47:15.604Z,1.10
2023-01-18T20:50:04.997Z,1.30
2023-01-18T20:52:55.067Z,0.80
2023-01-18T20:55:43.911Z,1.10
2023-01-18T20:58:31.845Z,1.10
2023-01-18T21:01:21.562Z,1.00
2023-01-18T21:04:12.675Z,3.00
2023-01-18T21:07:00.368Z,0.70
2023-01-18T21:09:52.060Z,0.70
2023-01-18T21:12:41.507Z,0.90
2023-01-18T21:15:30.607Z,1.00
2023-01-18T21:18:19.428Z,1.10
2023-01-18T21:21:12.466Z,1.20
2023-01-18T21:24:04.900Z,0.90
2023-01-18T21:26:54.483Z,1.40
2023-01-18T21:29:46.727Z,1.00
2023-01-18T21:32:35.671Z,1.00
2023-01-18T21:35:30.098Z,1.10
2023-01-18T21:38:19.954Z,0.60
2023-01-18T21:41:28.423Z,0.90
2023-01-18T21:44:35.133Z,0.80
2023-01-18T21:47:23.487Z,0.80
2023-01-18T21:50:29.712Z,3.50
2023-01-18T21:53:42.865Z,1.20
2023-01-18T21:56:35.102Z,1.20
2023-01-18T21:59:29.081Z,1.40
2023-01-18T22:02:27.215Z,0.80
2023-01-18T22:05:26.885Z,1.40
2023-01-18T22:08:18.316Z,-0.40
2023-01-18T22:11:07.203Z,1.40
2023-01-18T22:13:54.805Z,1.90
2023-01-18T22:16:45.743Z,1.90
2023-01-18T22:19:33.938Z,1.70
2023-01-18T22:22:32.746Z,1.50
2023-01-18T22:25:27.378Z,1.40
2023-01-18T22:28:19.667Z,1.40
2023-01-18T22:31:21.641Z,1.60
2023-01-18T22:34:19.643Z,1.70
2023-01-18T22:37:08.405Z,1.50
2023-01-18T22:39:57.567Z,2.30
2023-01-18T22:42:53.044Z,1.40
2023-01-18T22:45:41.300Z,1.40
2023-01-18T22:48:35.698Z,-1.20
2023-01-18T22:51:33.547Z,1.90
2023-01-18T22:54:27.925Z,2.40
2023-01-18T22:57:19.479Z,2.00
2023-01-18T23:00:11.861Z,1.30
2023-01-18T23:03:05.150Z,4.80
2023-01-18T23:06:01.509Z,1.30
2023-01-18T23:08:51.100Z,1.60
2023-01-18T23:11:42.098Z,1.20
2023-01-18T23:14:48.804Z,1.10
2023-01-18T23:17:42.394Z,1.20
2023-01-18T23:20:29.711Z,1.10
2023-01-18T23:23:20.838Z,1.10
2023-01-18T23:26:16.153Z,0.70
2023-01-18T23:29:04.172Z,0.80
2023-01-18T23:31:53.520Z,0.70
2023-01-18T23:34:48.617Z,1.30
2023-01-18T23:37:41.074Z,0.60
2023-01-18T23:40:48.666Z,0.60
2023-01-18T23:44:03.230Z,0.50
2023-01-18T23:47:09.676Z,0.80
2023-01-18T23:50:17.505Z,0.60
2023-01-18T23:53:22.881Z,1.30
2023-01-18T23:56:18.042Z,0.50
2023-01-18T23:59:10.744Z,0.50
